Marietta, Washington
Current Conditions -  °F | °C
As of 8:39 AM on Friday 21 Nov 2014 (Local Time) from KBLI Reporting Station
Overcast Overcast  
Wind Chill: 54°   Ceiling: 10000
Heat Index: 54°   Visibility: 10mi
Dew Point: 45°   Wind: 18mph
Humidity: 72%   Direction: 150°SSE
Pressure: 29.65"   Gusts: 32mph
Location:  48.7531°N, 122.502°W
Report Text: KBLI 211639Z 15016G28KT 10SM SCT024 SCT075 OVC100 12/07 A2965 RMK AO2 PK WND 15028/1635 RAB1556E28 P0000
Loading
Personal Weather Stations






























Interactive Weather Map New forecast layout! Learn more

10-Day Weather Forecast

Advertisements
Track Severe Weather on mobile